sensor_id;sensor_type;location;lat;lon;timestamp;pressure;altitude;pressure_sealevel;temperature;humidity
52935;BME280;38802;50.198;19.796;2023-04-28T00:00:30;96602.83;;;5.38;60.06
52935;BME280;38802;50.198;19.796;2023-04-28T00:03:16;96601.33;;;5.31;59.98
52935;BME280;38802;50.198;19.796;2023-04-28T00:05:44;96597.36;;;5.22;59.97
52935;BME280;38802;50.198;19.796;2023-04-28T00:08:14;96600.15;;;5.21;60.23
52935;BME280;38802;50.198;19.796;2023-04-28T00:10:41;96594.89;;;5.26;60.23
52935;BME280;38802;50.198;19.796;2023-04-28T00:13:09;96593.17;;;5.29;60.35
52935;BME280;38802;50.198;19.796;2023-04-28T00:15:38;96589.70;;;5.29;60.26
52935;BME280;38802;50.198;19.796;2023-04-28T00:18:06;96590.29;;;5.28;60.54
52935;BME280;38802;50.198;19.796;2023-04-28T00:20:34;96589.19;;;5.29;60.69
52935;BME280;38802;50.198;19.796;2023-04-28T00:23:02;96585.09;;;5.28;60.42
52935;BME280;38802;50.198;19.796;2023-04-28T00:25:30;96589.33;;;5.20;60.53
52935;BME280;38802;50.198;19.796;2023-04-28T00:27:58;96592.34;;;5.19;60.63
52935;BME280;38802;50.198;19.796;2023-04-28T00:30:26;96591.86;;;5.21;60.72
52935;BME280;38802;50.198;19.796;2023-04-28T00:32:54;96591.70;;;5.27;60.81
52935;BME280;38802;50.198;19.796;2023-04-28T00:35:22;96586.06;;;5.32;60.91
52935;BME280;38802;50.198;19.796;2023-04-28T00:37:50;96588.30;;;5.27;60.80
52935;BME280;38802;50.198;19.796;2023-04-28T00:40:18;96584.67;;;5.23;60.91
52935;BME280;38802;50.198;19.796;2023-04-28T00:42:46;96584.84;;;5.27;61.09
52935;BME280;38802;50.198;19.796;2023-04-28T00:45:14;96585.54;;;5.33;61.19
52935;BME280;38802;50.198;19.796;2023-04-28T00:47:42;96589.13;;;5.27;61.23
52935;BME280;38802;50.198;19.796;2023-04-28T00:50:10;96586.91;;;5.17;61.14
52935;BME280;38802;50.198;19.796;2023-04-28T00:52:38;96590.10;;;5.18;61.31
52935;BME280;38802;50.198;19.796;2023-04-28T00:55:08;96591.48;;;5.18;61.29
52935;BME280;38802;50.198;19.796;2023-04-28T00:57:37;96591.48;;;5.15;61.33
52935;BME280;38802;50.198;19.796;2023-04-28T01:00:06;96590.69;;;5.17;61.47
52935;BME280;38802;50.198;19.796;2023-04-28T01:02:37;96586.20;;;5.21;61.46
52935;BME280;38802;50.198;19.796;2023-04-28T01:05:07;96585.24;;;5.23;61.54
52935;BME280;38802;50.198;19.796;2023-04-28T01:07:37;96585.16;;;5.21;61.55
52935;BME280;38802;50.198;19.796;2023-04-28T01:10:06;96588.45;;;5.20;61.59
52935;BME280;38802;50.198;19.796;2023-04-28T01:12:35;96590.20;;;5.17;61.65
52935;BME280;38802;50.198;19.796;2023-04-28T01:15:05;96591.27;;;5.13;61.76
52935;BME280;38802;50.198;19.796;2023-04-28T01:17:34;96591.48;;;5.09;61.65
52935;BME280;38802;50.198;19.796;2023-04-28T01:20:06;96593.93;;;5.12;61.78
52935;BME280;38802;50.198;19.796;2023-04-28T01:22:34;96594.11;;;5.18;61.92
52935;BME280;38802;50.198;19.796;2023-04-28T01:25:03;96592.42;;;5.24;61.95
52935;BME280;38802;50.198;19.796;2023-04-28T01:27:32;96593.53;;;5.25;62.02
52935;BME280;38802;50.198;19.796;2023-04-28T01:30:00;96593.96;;;5.24;62.01
52935;BME280;38802;50.198;19.796;2023-04-28T01:32:28;96591.50;;;5.22;62.01
52935;BME280;38802;50.198;19.796;2023-04-28T01:34:56;96594.39;;;5.19;62.05
52935;BME280;38802;50.198;19.796;2023-04-28T01:37:24;96593.77;;;5.11;61.99
52935;BME280;38802;50.198;19.796;2023-04-28T01:39:53;96593.98;;;5.11;61.98
52935;BME280;38802;50.198;19.796;2023-04-28T01:42:21;96597.07;;;5.05;61.96
52935;BME280;38802;50.198;19.796;2023-04-28T01:44:50;96595.31;;;4.99;62.07
52935;BME280;38802;50.198;19.796;2023-04-28T01:47:18;96593.44;;;5.02;62.17
52935;BME280;38802;50.198;19.796;2023-04-28T01:49:46;96596.02;;;5.02;62.29
52935;BME280;38802;50.198;19.796;2023-04-28T01:52:16;96593.96;;;5.08;62.40
52935;BME280;38802;50.198;19.796;2023-04-28T01:54:46;96595.05;;;5.13;62.51
52935;BME280;38802;50.198;19.796;2023-04-28T01:57:15;96595.46;;;5.15;62.49
52935;BME280;38802;50.198;19.796;2023-04-28T01:59:44;96596.55;;;5.17;62.41
52935;BME280;38802;50.198;19.796;2023-04-28T02:02:12;96593.90;;;5.12;62.24
52935;BME280;38802;50.198;19.796;2023-04-28T02:04:41;96590.79;;;5.00;62.09
52935;BME280;38802;50.198;19.796;2023-04-28T02:07:09;96590.63;;;4.97;62.22
52935;BME280;38802;50.198;19.796;2023-04-28T02:09:37;96590.34;;;5.01;62.27
52935;BME280;38802;50.198;19.796;2023-04-28T02:12:05;96591.14;;;5.09;62.49
52935;BME280;38802;50.198;19.796;2023-04-28T02:14:33;96586.99;;;5.16;62.54
52935;BME280;38802;50.198;19.796;2023-04-28T02:17:01;96589.64;;;5.21;62.45
52935;BME280;38802;50.198;19.796;2023-04-28T02:19:33;96591.61;;;5.26;62.52
52935;BME280;38802;50.198;19.796;2023-04-28T02:22:01;96593.49;;;5.29;62.42
52935;BME280;38802;50.198;19.796;2023-04-28T02:24:29;96593.63;;;5.27;62.38
52935;BME280;38802;50.198;19.796;2023-04-28T02:26:58;96591.35;;;5.24;62.32
52935;BME280;38802;50.198;19.796;2023-04-28T02:29:27;96593.89;;;5.22;62.23
52935;BME280;38802;50.198;19.796;2023-04-28T02:31:58;96592.05;;;5.21;62.25
52935;BME280;38802;50.198;19.796;2023-04-28T02:34:26;96592.45;;;5.20;62.38
52935;BME280;38802;50.198;19.796;2023-04-28T02:36:54;96592.89;;;5.18;62.33
52935;BME280;38802;50.198;19.796;2023-04-28T02:39:22;96594.01;;;5.16;62.33
52935;BME280;38802;50.198;19.796;2023-04-28T02:41:56;96592.26;;;5.17;62.37
52935;BME280;38802;50.198;19.796;2023-04-28T02:44:24;96590.92;;;5.19;62.44
52935;BME280;38802;50.198;19.796;2023-04-28T02:46:52;96588.58;;;5.21;62.30
52935;BME280;38802;50.198;19.796;2023-04-28T02:49:21;96588.65;;;5.20;62.33
52935;BME280;38802;50.198;19.796;2023-04-28T02:51:49;96589.92;;;5.18;62.17
52935;BME280;38802;50.198;19.796;2023-04-28T02:54:17;96586.30;;;5.12;62.11
52935;BME280;38802;50.198;19.796;2023-04-28T02:56:55;96584.54;;;5.07;62.31
52935;BME280;38802;50.198;19.796;2023-04-28T02:59:23;96582.15;;;5.03;62.11
52935;BME280;38802;50.198;19.796;2023-04-28T03:01:51;96582.79;;;4.98;62.13
52935;BME280;38802;50.198;19.796;2023-04-28T03:04:20;96580.14;;;4.93;62.17
52935;BME280;38802;50.198;19.796;2023-04-28T03:06:49;96580.49;;;4.90;62.25
52935;BME280;38802;50.198;19.796;2023-04-28T03:09:17;96579.13;;;4.90;62.43
52935;BME280;38802;50.198;19.796;2023-04-28T03:11:45;96577.71;;;4.84;62.37
52935;BME280;38802;50.198;19.796;2023-04-28T03:14:13;96578.02;;;4.82;62.41
52935;BME280;38802;50.198;19.796;2023-04-28T03:16:43;96580.06;;;4.79;62.44
52935;BME280;38802;50.198;19.796;2023-04-28T03:19:12;96580.53;;;4.76;62.51
52935;BME280;38802;50.198;19.796;2023-04-28T03:21:40;96584.27;;;4.77;62.54
52935;BME280;38802;50.198;19.796;2023-04-28T03:24:07;96581.28;;;4.79;62.55
52935;BME280;38802;50.198;19.796;2023-04-28T03:26:36;96585.74;;;4.79;62.57
52935;BME280;38802;50.198;19.796;2023-04-28T03:29:04;96582.68;;;4.71;62.27
52935;BME280;38802;50.198;19.796;2023-04-28T03:31:32;96579.55;;;4.65;62.33
52935;BME280;38802;50.198;19.796;2023-04-28T03:34:01;96584.25;;;4.64;62.50
52935;BME280;38802;50.198;19.796;2023-04-28T03:36:30;96585.77;;;4.65;62.76
52935;BME280;38802;50.198;19.796;2023-04-28T03:39:04;96582.70;;;4.65;62.81
52935;BME280;38802;50.198;19.796;2023-04-28T03:41:32;96584.65;;;4.63;62.61
52935;BME280;38802;50.198;19.796;2023-04-28T03:44:18;96580.05;;;4.59;62.66
52935;BME280;38802;50.198;19.796;2023-04-28T03:46:48;96583.91;;;4.55;62.59
52935;BME280;38802;50.198;19.796;2023-04-28T03:49:17;96586.13;;;4.52;62.69
52935;BME280;38802;50.198;19.796;2023-04-28T03:51:45;96588.25;;;4.51;62.83
52935;BME280;38802;50.198;19.796;2023-04-28T03:54:13;96587.27;;;4.50;62.83
52935;BME280;38802;50.198;19.796;2023-04-28T03:56:43;96587.42;;;4.50;62.90
52935;BME280;38802;50.198;19.796;2023-04-28T03:59:11;96589.81;;;4.51;62.81
52935;BME280;38802;50.198;19.796;2023-04-28T04:01:39;96586.79;;;4.49;62.80
52935;BME280;38802;50.198;19.796;2023-04-28T04:04:08;96585.71;;;4.47;62.69
52935;BME280;38802;50.198;19.796;2023-04-28T04:06:36;96585.30;;;4.45;62.74
52935;BME280;38802;50.198;19.796;2023-04-28T04:09:04;96593.07;;;4.41;62.80
52935;BME280;38802;50.198;19.796;2023-04-28T04:11:32;96589.61;;;4.38;63.01
52935;BME280;38802;50.198;19.796;2023-04-28T04:14:00;96587.94;;;4.30;62.75
52935;BME280;38802;50.198;19.796;2023-04-28T04:16:29;96588.41;;;4.27;62.76
52935;BME280;38802;50.198;19.796;2023-04-28T04:18:58;96587.23;;;4.24;62.77
52935;BME280;38802;50.198;19.796;2023-04-28T04:21:42;96584.70;;;4.20;62.87
52935;BME280;38802;50.198;19.796;2023-04-28T04:24:10;96585.83;;;4.21;62.91
52935;BME280;38802;50.198;19.796;2023-04-28T04:26:38;96588.02;;;4.22;63.01
52935;BME280;38802;50.198;19.796;2023-04-28T04:29:24;96582.98;;;4.33;63.16
52935;BME280;38802;50.198;19.796;2023-04-28T04:31:52;96581.17;;;4.42;62.99
52935;BME280;38802;50.198;19.796;2023-04-28T04:34:21;96580.89;;;4.44;62.85
52935;BME280;38802;50.198;19.796;2023-04-28T04:36:49;96580.02;;;4.41;62.88
52935;BME280;38802;50.198;19.796;2023-04-28T04:39:17;96579.86;;;4.40;62.97
52935;BME280;38802;50.198;19.796;2023-04-28T04:41:47;96581.68;;;4.48;63.18
52935;BME280;38802;50.198;19.796;2023-04-28T04:44:31;96578.63;;;4.60;63.05
52935;BME280;38802;50.198;19.796;2023-04-28T04:46:59;96581.59;;;4.72;63.19
52935;BME280;38802;50.198;19.796;2023-04-28T04:49:27;96580.56;;;4.88;63.22
52935;BME280;38802;50.198;19.796;2023-04-28T04:51:55;96584.07;;;5.06;63.23
52935;BME280;38802;50.198;19.796;2023-04-28T04:54:24;96581.78;;;5.20;63.12
52935;BME280;38802;50.198;19.796;2023-04-28T04:56:52;96579.67;;;5.36;63.04
52935;BME280;38802;50.198;19.796;2023-04-28T04:59:30;96579.65;;;5.49;62.84
52935;BME280;38802;50.198;19.796;2023-04-28T05:02:04;96580.80;;;5.58;62.69
52935;BME280;38802;50.198;19.796;2023-04-28T05:04:32;96582.72;;;5.67;62.71
52935;BME280;38802;50.198;19.796;2023-04-28T05:07:01;96582.11;;;5.81;62.74
52935;BME280;38802;50.198;19.796;2023-04-28T05:09:31;96579.26;;;5.98;62.68
52935;BME280;38802;50.198;19.796;2023-04-28T05:12:02;96575.27;;;6.19;62.54
52935;BME280;38802;50.198;19.796;2023-04-28T05:14:30;96575.35;;;6.37;62.50
52935;BME280;38802;50.198;19.796;2023-04-28T05:16:58;96573.56;;;6.59;62.18
52935;BME280;38802;50.198;19.796;2023-04-28T05:19:32;96577.69;;;6.73;61.94
52935;BME280;38802;50.198;19.796;2023-04-28T05:22:00;96574.95;;;6.92;62.01
52935;BME280;38802;50.198;19.796;2023-04-28T05:24:28;96576.98;;;7.09;61.31
52935;BME280;38802;50.198;19.796;2023-04-28T05:26:59;96579.38;;;7.26;61.29
52935;BME280;38802;50.198;19.796;2023-04-28T05:29:28;96578.65;;;7.46;61.32
52935;BME280;38802;50.198;19.796;2023-04-28T05:31:56;96580.47;;;7.68;61.31
52935;BME280;38802;50.198;19.796;2023-04-28T05:34:25;96580.95;;;7.87;60.55
52935;BME280;38802;50.198;19.796;2023-04-28T05:36:53;96578.09;;;8.07;59.85
52935;BME280;38802;50.198;19.796;2023-04-28T05:39:24;96579.67;;;8.22;59.96
52935;BME280;38802;50.198;19.796;2023-04-28T05:41:53;96579.38;;;8.42;59.36
52935;BME280;38802;50.198;19.796;2023-04-28T05:44:22;96580.85;;;8.61;59.64
52935;BME280;38802;50.198;19.796;2023-04-28T05:46:50;96578.77;;;8.84;59.35
52935;BME280;38802;50.198;19.796;2023-04-28T05:49:22;96581.41;;;9.00;59.04
52935;BME280;38802;50.198;19.796;2023-04-28T05:51:50;96583.83;;;9.20;58.94
52935;BME280;38802;50.198;19.796;2023-04-28T05:54:18;96580.89;;;9.34;57.51
52935;BME280;38802;50.198;19.796;2023-04-28T05:56:48;96584.30;;;9.50;57.38
52935;BME280;38802;50.198;19.796;2023-04-28T05:59:18;96581.67;;;9.62;57.17
52935;BME280;38802;50.198;19.796;2023-04-28T06:01:46;96585.37;;;9.75;56.48
52935;BME280;38802;50.198;19.796;2023-04-28T06:04:14;96583.98;;;9.90;57.07
52935;BME280;38802;50.198;19.796;2023-04-28T06:06:42;96584.38;;;10.01;56.42
52935;BME280;38802;50.198;19.796;2023-04-28T06:09:10;96587.64;;;10.13;55.80
52935;BME280;38802;50.198;19.796;2023-04-28T06:11:39;96586.39;;;10.25;55.83
52935;BME280;38802;50.198;19.796;2023-04-28T06:14:07;96583.92;;;10.37;55.32
52935;BME280;38802;50.198;19.796;2023-04-28T06:16:35;96583.27;;;10.52;55.45
52935;BME280;38802;50.198;19.796;2023-04-28T06:19:03;96579.96;;;10.66;55.38
52935;BME280;38802;50.198;19.796;2023-04-28T06:21:31;96577.54;;;10.79;54.83
52935;BME280;38802;50.198;19.796;2023-04-28T06:24:00;96577.83;;;10.89;53.91
52935;BME280;38802;50.198;19.796;2023-04-28T06:26:29;96572.88;;;10.99;54.37
52935;BME280;38802;50.198;19.796;2023-04-28T06:28:57;96573.27;;;11.16;54.61
52935;BME280;38802;50.198;19.796;2023-04-28T06:31:25;96572.55;;;11.34;53.94
52935;BME280;38802;50.198;19.796;2023-04-28T06:34:04;96572.73;;;11.49;53.60
52935;BME280;38802;50.198;19.796;2023-04-28T06:36:32;96574.55;;;11.61;53.14
52935;BME280;38802;50.198;19.796;2023-04-28T06:39:00;96576.70;;;11.73;52.58
52935;BME280;38802;50.198;19.796;2023-04-28T06:41:28;96572.79;;;11.89;52.08
52935;BME280;38802;50.198;19.796;2023-04-28T06:43:58;96574.58;;;11.93;50.59
52935;BME280;38802;50.198;19.796;2023-04-28T06:46:30;96573.19;;;11.91;50.16
52935;BME280;38802;50.198;19.796;2023-04-28T06:48:58;96573.92;;;11.97;50.15
52935;BME280;38802;50.198;19.796;2023-04-28T06:51:26;96576.18;;;11.94;49.20
52935;BME280;38802;50.198;19.796;2023-04-28T06:53:55;96569.73;;;11.97;50.15
52935;BME280;38802;50.198;19.796;2023-04-28T06:56:23;96563.35;;;12.11;49.60
52935;BME280;38802;50.198;19.796;2023-04-28T06:58:54;96562.00;;;12.14;48.68
52935;BME280;38802;50.198;19.796;2023-04-28T07:01:22;96561.02;;;12.22;48.22
52935;BME280;38802;50.198;19.796;2023-04-28T07:03:50;96562.45;;;12.26;47.88
52935;BME280;38802;50.198;19.796;2023-04-28T07:06:18;96563.05;;;12.27;47.66
52935;BME280;38802;50.198;19.796;2023-04-28T07:08:48;96562.97;;;12.30;48.42
52935;BME280;38802;50.198;19.796;2023-04-28T07:11:16;96560.35;;;12.42;48.27
52935;BME280;38802;50.198;19.796;2023-04-28T07:13:44;96553.91;;;12.52;47.92
52935;BME280;38802;50.198;19.796;2023-04-28T07:16:17;96558.09;;;12.63;47.88
52935;BME280;38802;50.198;19.796;2023-04-28T07:18:46;96555.11;;;12.69;47.14
52935;BME280;38802;50.198;19.796;2023-04-28T07:21:14;96552.87;;;12.71;46.10
52935;BME280;38802;50.198;19.796;2023-04-28T07:23:42;96548.89;;;12.71;46.30
52935;BME280;38802;50.198;19.796;2023-04-28T07:26:10;96550.88;;;12.68;45.74
52935;BME280;38802;50.198;19.796;2023-04-28T07:28:43;96550.73;;;12.75;46.38
52935;BME280;38802;50.198;19.796;2023-04-28T07:31:11;96547.69;;;12.86;46.66
52935;BME280;38802;50.198;19.796;2023-04-28T07:33:39;96548.54;;;13.01;46.37
52935;BME280;38802;50.198;19.796;2023-04-28T07:36:08;96547.71;;;13.12;46.15
52935;BME280;38802;50.198;19.796;2023-04-28T07:38:36;96545.08;;;13.17;44.15
52935;BME280;38802;50.198;19.796;2023-04-28T07:41:04;96544.09;;;13.18;44.70
52935;BME280;38802;50.198;19.796;2023-04-28T07:43:36;96543.27;;;13.22;44.57
52935;BME280;38802;50.198;19.796;2023-04-28T07:46:06;96542.80;;;13.33;44.62
52935;BME280;38802;50.198;19.796;2023-04-28T07:48:35;96538.98;;;13.42;44.06
52935;BME280;38802;50.198;19.796;2023-04-28T07:51:03;96537.67;;;13.45;43.42
52935;BME280;38802;50.198;19.796;2023-04-28T07:53:31;96538.31;;;13.44;42.85
52935;BME280;38802;50.198;19.796;2023-04-28T07:55:59;96538.46;;;13.38;43.50
52935;BME280;38802;50.198;19.796;2023-04-28T07:58:28;96539.85;;;13.42;43.30
52935;BME280;38802;50.198;19.796;2023-04-28T08:00:56;96537.67;;;13.47;43.64
52935;BME280;38802;50.198;19.796;2023-04-28T08:03:24;96535.77;;;13.53;43.22
52935;BME280;38802;50.198;19.796;2023-04-28T08:05:52;96537.64;;;13.54;43.12
52935;BME280;38802;50.198;19.796;2023-04-28T08:08:21;96539.69;;;13.58;42.43
52935;BME280;38802;50.198;19.796;2023-04-28T08:10:49;96538.67;;;13.54;41.72
52935;BME280;38802;50.198;19.796;2023-04-28T08:13:17;96538.56;;;13.45;42.41
52935;BME280;38802;50.198;19.796;2023-04-28T08:15:47;96536.77;;;13.44;42.79
52935;BME280;38802;50.198;19.796;2023-04-28T08:18:15;96539.27;;;13.43;42.66
52935;BME280;38802;50.198;19.796;2023-04-28T08:20:43;96536.96;;;13.37;42.37
52935;BME280;38802;50.198;19.796;2023-04-28T08:23:11;96535.48;;;13.31;42.72
52935;BME280;38802;50.198;19.796;2023-04-28T08:25:39;96537.77;;;13.23;42.84
52935;BME280;38802;50.198;19.796;2023-04-28T08:28:08;96535.30;;;13.16;43.05
52935;BME280;38802;50.198;19.796;2023-04-28T08:30:36;96533.41;;;13.19;42.72
52935;BME280;38802;50.198;19.796;2023-04-28T08:33:06;96539.63;;;13.09;42.57
52935;BME280;38802;50.198;19.796;2023-04-28T08:35:40;96536.94;;;13.00;42.78
52935;BME280;38802;50.198;19.796;2023-04-28T08:38:17;96535.64;;;12.99;43.06
52935;BME280;38802;50.198;19.796;2023-04-28T08:40:55;96536.15;;;12.97;42.83
52935;BME280;38802;50.198;19.796;2023-04-28T08:43:41;96531.40;;;13.04;42.86
52935;BME280;38802;50.198;19.796;2023-04-28T08:46:10;96528.77;;;13.06;42.76
52935;BME280;38802;50.198;19.796;2023-04-28T08:48:40;96527.14;;;13.02;42.82
52935;BME280;38802;50.198;19.796;2023-04-28T08:51:14;96525.38;;;13.03;42.49
52935;BME280;38802;50.198;19.796;2023-04-28T08:53:44;96526.81;;;13.04;43.05
52935;BME280;38802;50.198;19.796;2023-04-28T08:56:37;96524.70;;;13.10;42.75
52935;BME280;38802;50.198;19.796;2023-04-28T08:59:05;96524.05;;;13.18;42.27
52935;BME280;38802;50.198;19.796;2023-04-28T09:01:34;96524.13;;;13.25;42.86
52935;BME280;38802;50.198;19.796;2023-04-28T09:04:03;96522.64;;;13.26;42.83
52935;BME280;38802;50.198;19.796;2023-04-28T09:06:35;96520.73;;;13.33;42.25
52935;BME280;38802;50.198;19.796;2023-04-28T09:09:23;96516.27;;;13.37;42.18
52935;BME280;38802;50.198;19.796;2023-04-28T09:12:01;96509.33;;;13.46;41.77
52935;BME280;38802;50.198;19.796;2023-04-28T09:14:34;96506.61;;;13.57;42.40
52935;BME280;38802;50.198;19.796;2023-04-28T09:17:11;96504.56;;;13.66;41.97
52935;BME280;38802;50.198;19.796;2023-04-28T09:19:40;96504.26;;;13.75;41.73
52935;BME280;38802;50.198;19.796;2023-04-28T09:22:10;96501.75;;;13.78;41.48
52935;BME280;38802;50.198;19.796;2023-04-28T09:24:53;96501.71;;;13.78;41.51
52935;BME280;38802;50.198;19.796;2023-04-28T09:27:28;96496.41;;;13.82;41.18
52935;BME280;38802;50.198;19.796;2023-04-28T09:29:56;96488.13;;;13.88;40.31
52935;BME280;38802;50.198;19.796;2023-04-28T09:33:19;96484.62;;;13.74;39.19
52935;BME280;38802;50.198;19.796;2023-04-28T09:36:45;96480.50;;;13.62;39.72
52935;BME280;38802;50.198;19.796;2023-04-28T09:40:08;96485.70;;;13.49;38.94
52935;BME280;38802;50.198;19.796;2023-04-28T09:42:42;96482.39;;;13.51;39.04
52935;BME280;38802;50.198;19.796;2023-04-28T09:45:11;96484.05;;;13.58;39.94
52935;BME280;38802;50.198;19.796;2023-04-28T09:47:45;96477.55;;;13.73;39.46
52935;BME280;38802;50.198;19.796;2023-04-28T09:50:15;96472.84;;;13.79;39.30
52935;BME280;38802;50.198;19.796;2023-04-28T09:52:54;96468.15;;;13.82;39.14
52935;BME280;38802;50.198;19.796;2023-04-28T09:55:25;96465.20;;;13.90;38.79
52935;BME280;38802;50.198;19.796;2023-04-28T09:57:55;96460.94;;;13.85;38.30
52935;BME280;38802;50.198;19.796;2023-04-28T10:00:27;96457.55;;;13.83;39.02
52935;BME280;38802;50.198;19.796;2023-04-28T10:02:55;96456.30;;;13.86;38.91
52935;BME280;38802;50.198;19.796;2023-04-28T10:05:24;96455.55;;;14.00;39.83
52935;BME280;38802;50.198;19.796;2023-04-28T10:07:52;96449.55;;;14.00;39.01
52935;BME280;38802;50.198;19.796;2023-04-28T10:10:22;96441.98;;;13.95;39.20
52935;BME280;38802;50.198;19.796;2023-04-28T10:12:51;96441.91;;;13.93;39.25
52935;BME280;38802;50.198;19.796;2023-04-28T10:15:20;96439.61;;;13.93;39.15
52935;BME280;38802;50.198;19.796;2023-04-28T10:17:49;96439.98;;;13.98;39.20
52935;BME280;38802;50.198;19.796;2023-04-28T10:20:17;96436.27;;;13.99;39.08
52935;BME280;38802;50.198;19.796;2023-04-28T10:23:09;96435.63;;;14.09;39.56
52935;BME280;38802;50.198;19.796;2023-04-28T10:25:47;96434.17;;;14.30;39.90
52935;BME280;38802;50.198;19.796;2023-04-28T10:28:16;96430.55;;;14.37;39.08
52935;BME280;38802;50.198;19.796;2023-04-28T10:31:08;96425.54;;;14.41;39.59
52935;BME280;38802;50.198;19.796;2023-04-28T10:33:38;96418.69;;;14.50;39.34
52935;BME280;38802;50.198;19.796;2023-04-28T10:36:07;96419.45;;;14.50;38.97
52935;BME280;38802;50.198;19.796;2023-04-28T10:39:08;96417.18;;;14.53;39.63
52935;BME280;38802;50.198;19.796;2023-04-28T10:41:36;96416.45;;;14.70;40.54
52935;BME280;38802;50.198;19.796;2023-04-28T10:47:07;96401.91;;;14.65;39.61
52935;BME280;38802;50.198;19.796;2023-04-28T10:55:27;96400.23;;;14.84;39.94
52935;BME280;38802;50.198;19.796;2023-04-28T11:00:47;96388.98;;;15.09;39.45
52935;BME280;38802;50.198;19.796;2023-04-28T11:03:48;96387.48;;;15.13;39.47
52935;BME280;38802;50.198;19.796;2023-04-28T11:06:19;96385.54;;;15.00;38.97
52935;BME280;38802;50.198;19.796;2023-04-28T11:08:48;96383.70;;;14.94;39.04
52935;BME280;38802;50.198;19.796;2023-04-28T11:11:18;96381.58;;;14.94;39.28
52935;BME280;38802;50.198;19.796;2023-04-28T11:13:47;96380.05;;;15.04;39.67
52935;BME280;38802;50.198;19.796;2023-04-28T11:16:18;96379.83;;;15.16;39.32
52935;BME280;38802;50.198;19.796;2023-04-28T11:21:24;96377.18;;;15.21;38.91
52935;BME280;38802;50.198;19.796;2023-04-28T11:23:52;96376.05;;;15.20;38.61
52935;BME280;38802;50.198;19.796;2023-04-28T11:26:20;96371.89;;;15.14;39.19
52935;BME280;38802;50.198;19.796;2023-04-28T11:28:55;96365.08;;;15.02;37.97
52935;BME280;38802;50.198;19.796;2023-04-28T11:31:25;96366.23;;;14.92;38.06
52935;BME280;38802;50.198;19.796;2023-04-28T11:34:03;96359.52;;;14.89;38.44
52935;BME280;38802;50.198;19.796;2023-04-28T11:36:39;96355.38;;;14.81;37.73
52935;BME280;38802;50.198;19.796;2023-04-28T11:39:09;96356.75;;;14.67;37.63
52935;BME280;38802;50.198;19.796;2023-04-28T11:41:38;96350.66;;;14.58;37.29
52935;BME280;38802;50.198;19.796;2023-04-28T11:44:16;96349.02;;;14.44;37.06
52935;BME280;38802;50.198;19.796;2023-04-28T11:49:23;96339.56;;;14.37;38.88
52935;BME280;38802;50.198;19.796;2023-04-28T11:51:51;96340.60;;;14.52;38.62
52935;BME280;38802;50.198;19.796;2023-04-28T11:54:27;96340.79;;;14.60;38.11
52935;BME280;38802;50.198;19.796;2023-04-28T11:56:56;96335.39;;;14.67;38.78
52935;BME280;38802;50.198;19.796;2023-04-28T11:59:26;96329.25;;;14.82;39.28
52935;BME280;38802;50.198;19.796;2023-04-28T12:01:57;96325.55;;;14.87;39.02
52935;BME280;38802;50.198;19.796;2023-04-28T12:04:31;96325.48;;;14.90;38.53
52935;BME280;38802;50.198;19.796;2023-04-28T12:09:33;96325.42;;;15.03;39.52
52935;BME280;38802;50.198;19.796;2023-04-28T12:12:04;96321.67;;;15.09;39.29
52935;BME280;38802;50.198;19.796;2023-04-28T12:14:52;96315.02;;;15.05;38.43
52935;BME280;38802;50.198;19.796;2023-04-28T12:19:54;96312.16;;;15.10;39.48
52935;BME280;38802;50.198;19.796;2023-04-28T12:22:23;96313.09;;;15.18;39.44
52935;BME280;38802;50.198;19.796;2023-04-28T12:25:08;96312.77;;;15.26;39.57
52935;BME280;38802;50.198;19.796;2023-04-28T12:27:38;96310.70;;;15.26;39.19
52935;BME280;38802;50.198;19.796;2023-04-28T12:32:47;96299.77;;;15.15;38.15
52935;BME280;38802;50.198;19.796;2023-04-28T12:35:16;96294.44;;;15.05;38.79
52935;BME280;38802;50.198;19.796;2023-04-28T12:37:44;96290.09;;;15.06;39.02
52935;BME280;38802;50.198;19.796;2023-04-28T12:40:12;96288.17;;;15.08;38.88
52935;BME280;38802;50.198;19.796;2023-04-28T12:42:41;96287.39;;;15.09;38.89
52935;BME280;38802;50.198;19.796;2023-04-28T12:45:09;96280.52;;;14.99;37.85
52935;BME280;38802;50.198;19.796;2023-04-28T12:47:37;96273.95;;;14.84;38.10
52935;BME280;38802;50.198;19.796;2023-04-28T12:50:06;96269.02;;;14.83;38.61
52935;BME280;38802;50.198;19.796;2023-04-28T12:52:34;96271.73;;;14.84;38.24
52935;BME280;38802;50.198;19.796;2023-04-28T12:55:04;96273.66;;;14.82;38.37
52935;BME280;38802;50.198;19.796;2023-04-28T12:57:32;96269.81;;;14.80;38.36
52935;BME280;38802;50.198;19.796;2023-04-28T13:00:07;96269.54;;;14.66;37.87
52935;BME280;38802;50.198;19.796;2023-04-28T13:02:35;96269.50;;;14.65;38.07
52935;BME280;38802;50.198;19.796;2023-04-28T13:05:05;96269.41;;;14.68;38.34
52935;BME280;38802;50.198;19.796;2023-04-28T13:07:34;96266.87;;;14.69;38.60
52935;BME280;38802;50.198;19.796;2023-04-28T13:10:02;96259.48;;;14.76;38.64
52935;BME280;38802;50.198;19.796;2023-04-28T13:12:30;96258.64;;;14.82;38.80
52935;BME280;38802;50.198;19.796;2023-04-28T13:15:03;96252.91;;;14.92;39.07
52935;BME280;38802;50.198;19.796;2023-04-28T13:17:31;96248.98;;;14.98;38.86
52935;BME280;38802;50.198;19.796;2023-04-28T13:20:01;96250.96;;;14.95;38.25
52935;BME280;38802;50.198;19.796;2023-04-28T13:22:30;96249.92;;;14.92;38.47
52935;BME280;38802;50.198;19.796;2023-04-28T13:24:58;96246.47;;;14.81;37.58
52935;BME280;38802;50.198;19.796;2023-04-28T13:27:26;96241.70;;;14.70;38.18
52935;BME280;38802;50.198;19.796;2023-04-28T13:29:57;96241.13;;;14.64;38.63
52935;BME280;38802;50.198;19.796;2023-04-28T13:32:26;96245.27;;;14.61;37.86
52935;BME280;38802;50.198;19.796;2023-04-28T13:34:54;96239.38;;;14.59;38.19
52935;BME280;38802;50.198;19.796;2023-04-28T13:37:23;96239.45;;;14.63;38.17